sensor_id;sensor_type;location;lat;lon;timestamp;P1;durP1;ratioP1;P2;durP2;ratioP2
50249;SDS011;36133;42.522;27.456;2022-10-23T00:09:23;24.23;;;12.52;;
50249;SDS011;36133;42.522;27.456;2022-10-23T00:54:06;18.52;;;10.60;;
50249;SDS011;36133;42.522;27.456;2022-10-23T00:56:35;19.17;;;11.50;;
50249;SDS011;36133;42.522;27.456;2022-10-23T00:59:04;23.50;;;11.68;;
50249;SDS011;36133;42.522;27.456;2022-10-23T01:01:33;18.60;;;11.18;;
50249;SDS011;36133;42.522;27.456;2022-10-23T01:23:11;23.80;;;13.38;;
50249;SDS011;36133;42.522;27.456;2022-10-23T03:47:47;38.03;;;21.50;;
50249;SDS011;36133;42.522;27.456;2022-10-23T03:50:14;44.80;;;21.77;;
50249;SDS011;36133;42.522;27.456;2022-10-23T03:52:41;46.08;;;23.02;;
50249;SDS011;36133;42.522;27.456;2022-10-23T03:55:07;43.83;;;22.00;;
50249;SDS011;36133;42.522;27.456;2022-10-23T03:57:37;38.28;;;20.58;;
50249;SDS011;36133;42.522;27.456;2022-10-23T04:05:13;33.72;;;18.67;;
50249;SDS011;36133;42.522;27.456;2022-10-23T04:07:41;36.22;;;19.35;;
50249;SDS011;36133;42.522;27.456;2022-10-23T04:10:07;37.58;;;19.98;;
50249;SDS011;36133;42.522;27.456;2022-10-23T04:12:33;36.33;;;18.52;;
50249;SDS011;36133;42.522;27.456;2022-10-23T04:14:59;35.35;;;19.40;;
50249;SDS011;36133;42.522;27.456;2022-10-23T04:20:27;32.28;;;18.95;;
50249;SDS011;36133;42.522;27.456;2022-10-23T04:22:53;39.83;;;19.73;;
50249;SDS011;36133;42.522;27.456;2022-10-23T04:25:19;36.10;;;19.30;;
50249;SDS011;36133;42.522;27.456;2022-10-23T04:27:45;37.83;;;20.45;;
50249;SDS011;36133;42.522;27.456;2022-10-23T04:30:11;35.25;;;19.30;;
50249;SDS011;36133;42.522;27.456;2022-10-23T04:32:37;30.92;;;18.13;;
50249;SDS011;36133;42.522;27.456;2022-10-23T04:35:02;29.55;;;17.08;;
50249;SDS011;36133;42.522;27.456;2022-10-23T04:37:28;32.53;;;18.75;;
50249;SDS011;36133;42.522;27.456;2022-10-23T04:39:54;33.83;;;18.85;;
50249;SDS011;36133;42.522;27.456;2022-10-23T04:42:20;34.53;;;18.27;;
50249;SDS011;36133;42.522;27.456;2022-10-23T04:44:46;34.05;;;18.90;;
50249;SDS011;36133;42.522;27.456;2022-10-23T04:47:12;32.35;;;18.25;;
50249;SDS011;36133;42.522;27.456;2022-10-23T04:53:02;33.40;;;18.35;;
50249;SDS011;36133;42.522;27.456;2022-10-23T05:01:25;27.20;;;17.45;;
50249;SDS011;36133;42.522;27.456;2022-10-23T05:03:51;36.58;;;18.17;;
50249;SDS011;36133;42.522;27.456;2022-10-23T05:06:18;29.73;;;17.35;;
50249;SDS011;36133;42.522;27.456;2022-10-23T05:13:55;33.10;;;18.00;;
50249;SDS011;36133;42.522;27.456;2022-10-23T05:19:08;27.80;;;17.70;;
50249;SDS011;36133;42.522;27.456;2022-10-23T05:21:38;36.60;;;18.92;;
50249;SDS011;36133;42.522;27.456;2022-10-23T05:24:05;29.65;;;17.40;;
50249;SDS011;36133;42.522;27.456;2022-10-23T05:26:31;30.58;;;18.48;;
50249;SDS011;36133;42.522;27.456;2022-10-23T05:28:57;33.67;;;17.88;;
50249;SDS011;36133;42.522;27.456;2022-10-23T05:31:23;33.45;;;18.08;;
50249;SDS011;36133;42.522;27.456;2022-10-23T05:33:50;31.02;;;17.88;;
50249;SDS011;36133;42.522;27.456;2022-10-23T05:36:18;31.27;;;19.00;;
50249;SDS011;36133;42.522;27.456;2022-10-23T05:38:44;31.60;;;17.33;;
50249;SDS011;36133;42.522;27.456;2022-10-23T05:41:10;33.90;;;17.88;;
50249;SDS011;36133;42.522;27.456;2022-10-23T05:43:36;32.65;;;17.67;;
50249;SDS011;36133;42.522;27.456;2022-10-23T05:46:05;30.48;;;18.25;;
50249;SDS011;36133;42.522;27.456;2022-10-23T05:48:31;36.35;;;17.95;;
50249;SDS011;36133;42.522;27.456;2022-10-23T05:51:05;36.58;;;18.52;;
50249;SDS011;36133;42.522;27.456;2022-10-23T05:53:31;33.78;;;17.92;;
50249;SDS011;36133;42.522;27.456;2022-10-23T05:56:06;33.67;;;17.02;;
50249;SDS011;36133;42.522;27.456;2022-10-23T06:03:23;29.20;;;15.70;;
50249;SDS011;36133;42.522;27.456;2022-10-23T06:05:49;30.50;;;15.80;;
50249;SDS011;36133;42.522;27.456;2022-10-23T06:08:16;30.98;;;15.43;;
50249;SDS011;36133;42.522;27.456;2022-10-23T06:10:42;30.13;;;16.05;;
50249;SDS011;36133;42.522;27.456;2022-10-23T06:13:08;38.75;;;17.20;;
50249;SDS011;36133;42.522;27.456;2022-10-23T06:15:33;33.38;;;16.67;;
50249;SDS011;36133;42.522;27.456;2022-10-23T06:18:03;36.20;;;16.83;;
50249;SDS011;36133;42.522;27.456;2022-10-23T06:20:29;37.40;;;16.95;;
50249;SDS011;36133;42.522;27.456;2022-10-23T06:22:54;31.83;;;17.23;;
50249;SDS011;36133;42.522;27.456;2022-10-23T06:25:20;29.80;;;15.90;;
50249;SDS011;36133;42.522;27.456;2022-10-23T06:27:45;29.42;;;16.25;;
50249;SDS011;36133;42.522;27.456;2022-10-23T06:30:14;29.42;;;15.20;;
50249;SDS011;36133;42.522;27.456;2022-10-23T06:32:40;34.45;;;14.85;;
50249;SDS011;36133;42.522;27.456;2022-10-23T06:35:06;25.02;;;14.50;;
50249;SDS011;36133;42.522;27.456;2022-10-23T06:37:33;24.63;;;12.80;;
50249;SDS011;36133;42.522;27.456;2022-10-23T06:40:01;27.30;;;14.23;;
50249;SDS011;36133;42.522;27.456;2022-10-23T06:42:28;21.50;;;12.63;;
50249;SDS011;36133;42.522;27.456;2022-10-23T06:44:54;22.48;;;13.27;;
50249;SDS011;36133;42.522;27.456;2022-10-23T06:47:22;25.40;;;14.05;;
50249;SDS011;36133;42.522;27.456;2022-10-23T06:49:47;26.67;;;13.65;;
50249;SDS011;36133;42.522;27.456;2022-10-23T06:52:13;26.08;;;13.50;;
50249;SDS011;36133;42.522;27.456;2022-10-23T06:54:39;26.33;;;13.85;;
50249;SDS011;36133;42.522;27.456;2022-10-23T06:57:04;23.35;;;13.98;;
50249;SDS011;36133;42.522;27.456;2022-10-23T06:59:30;19.08;;;12.35;;
50249;SDS011;36133;42.522;27.456;2022-10-23T07:01:55;20.08;;;12.00;;
50249;SDS011;36133;42.522;27.456;2022-10-23T07:04:21;23.00;;;12.00;;
50249;SDS011;36133;42.522;27.456;2022-10-23T07:06:47;20.40;;;12.23;;
50249;SDS011;36133;42.522;27.456;2022-10-23T07:09:12;18.02;;;11.85;;
50249;SDS011;36133;42.522;27.456;2022-10-23T07:11:38;21.23;;;12.10;;
50249;SDS011;36133;42.522;27.456;2022-10-23T07:14:03;21.27;;;11.85;;
50249;SDS011;36133;42.522;27.456;2022-10-23T07:16:29;23.45;;;12.07;;
50249;SDS011;36133;42.522;27.456;2022-10-23T07:18:56;24.52;;;12.02;;
50249;SDS011;36133;42.522;27.456;2022-10-23T07:21:24;21.30;;;12.18;;
50249;SDS011;36133;42.522;27.456;2022-10-23T07:23:50;26.55;;;11.30;;
50249;SDS011;36133;42.522;27.456;2022-10-23T07:26:16;23.67;;;10.25;;
50249;SDS011;36133;42.522;27.456;2022-10-23T07:28:43;18.80;;;10.45;;
50249;SDS011;36133;42.522;27.456;2022-10-23T07:31:15;16.95;;;10.25;;
50249;SDS011;36133;42.522;27.456;2022-10-23T07:33:41;14.07;;;9.15;;
50249;SDS011;36133;42.522;27.456;2022-10-23T07:36:07;15.52;;;9.85;;
50249;SDS011;36133;42.522;27.456;2022-10-23T07:38:34;14.18;;;9.57;;
50249;SDS011;36133;42.522;27.456;2022-10-23T07:41:00;19.02;;;9.75;;
50249;SDS011;36133;42.522;27.456;2022-10-23T07:43:26;18.65;;;9.65;;
50249;SDS011;36133;42.522;27.456;2022-10-23T07:45:55;16.58;;;9.32;;
50249;SDS011;36133;42.522;27.456;2022-10-23T07:48:20;18.63;;;8.93;;
50249;SDS011;36133;42.522;27.456;2022-10-23T07:50:48;19.17;;;9.80;;
50249;SDS011;36133;42.522;27.456;2022-10-23T07:53:20;17.23;;;8.77;;
50249;SDS011;36133;42.522;27.456;2022-10-23T07:55:53;12.57;;;8.73;;
50249;SDS011;36133;42.522;27.456;2022-10-23T07:58:21;16.05;;;9.27;;
50249;SDS011;36133;42.522;27.456;2022-10-23T08:00:53;20.80;;;8.80;;
50249;SDS011;36133;42.522;27.456;2022-10-23T08:03:22;14.73;;;8.45;;
50249;SDS011;36133;42.522;27.456;2022-10-23T08:05:52;15.57;;;8.80;;
50249;SDS011;36133;42.522;27.456;2022-10-23T08:08:19;12.10;;;8.02;;
50249;SDS011;36133;42.522;27.456;2022-10-23T08:10:46;15.70;;;8.00;;
50249;SDS011;36133;42.522;27.456;2022-10-23T08:13:12;16.95;;;8.48;;
50249;SDS011;36133;42.522;27.456;2022-10-23T08:15:39;12.57;;;8.23;;
50249;SDS011;36133;42.522;27.456;2022-10-23T08:18:11;13.50;;;8.32;;
50249;SDS011;36133;42.522;27.456;2022-10-23T08:20:41;12.32;;;7.60;;
50249;SDS011;36133;42.522;27.456;2022-10-23T08:23:08;13.57;;;8.43;;
50249;SDS011;36133;42.522;27.456;2022-10-23T08:25:38;13.20;;;8.05;;
50249;SDS011;36133;42.522;27.456;2022-10-23T08:28:05;21.55;;;9.07;;
50249;SDS011;36133;42.522;27.456;2022-10-23T08:30:36;16.83;;;8.40;;
50249;SDS011;36133;42.522;27.456;2022-10-23T08:33:03;15.73;;;7.38;;
50249;SDS011;36133;42.522;27.456;2022-10-23T08:35:29;15.73;;;8.15;;
50249;SDS011;36133;42.522;27.456;2022-10-23T08:37:58;11.32;;;7.57;;
50249;SDS011;36133;42.522;27.456;2022-10-23T08:40:24;20.10;;;7.88;;
50249;SDS011;36133;42.522;27.456;2022-10-23T08:43:01;11.35;;;7.72;;
50249;SDS011;36133;42.522;27.456;2022-10-23T08:45:42;17.58;;;8.18;;
50249;SDS011;36133;42.522;27.456;2022-10-23T08:48:30;12.95;;;7.10;;
50249;SDS011;36133;42.522;27.456;2022-10-23T08:51:28;11.32;;;7.47;;
50249;SDS011;36133;42.522;27.456;2022-10-23T08:56:51;15.23;;;8.63;;
50249;SDS011;36133;42.522;27.456;2022-10-23T09:02:26;10.63;;;4.22;;
50249;SDS011;36133;42.522;27.456;2022-10-23T09:04:55;5.00;;;3.55;;
50249;SDS011;36133;42.522;27.456;2022-10-23T09:16:04;6.60;;;2.28;;
50249;SDS011;36133;42.522;27.456;2022-10-23T09:18:47;6.50;;;2.42;;
50249;SDS011;36133;42.522;27.456;2022-10-23T09:21:14;5.88;;;2.00;;
50249;SDS011;36133;42.522;27.456;2022-10-23T09:23:40;5.20;;;2.10;;
50249;SDS011;36133;42.522;27.456;2022-10-23T09:26:13;6.95;;;2.00;;
50249;SDS011;36133;42.522;27.456;2022-10-23T09:28:46;2.50;;;1.88;;
50249;SDS011;36133;42.522;27.456;2022-10-23T09:31:19;6.55;;;2.50;;
50249;SDS011;36133;42.522;27.456;2022-10-23T09:33:58;8.68;;;2.30;;
50249;SDS011;36133;42.522;27.456;2022-10-23T09:36:27;4.53;;;1.83;;
50249;SDS011;36133;42.522;27.456;2022-10-23T09:38:54;3.50;;;1.95;;
50249;SDS011;36133;42.522;27.456;2022-10-23T09:41:36;5.00;;;1.98;;
50249;SDS011;36133;42.522;27.456;2022-10-23T09:46:37;3.05;;;2.03;;
50249;SDS011;36133;42.522;27.456;2022-10-23T09:52:31;5.90;;;1.73;;
50249;SDS011;36133;42.522;27.456;2022-10-23T09:55:16;3.45;;;2.03;;
50249;SDS011;36133;42.522;27.456;2022-10-23T09:57:45;10.35;;;2.05;;
50249;SDS011;36133;42.522;27.456;2022-10-23T10:02:55;5.50;;;2.10;;
50249;SDS011;36133;42.522;27.456;2022-10-23T10:08:04;5.45;;;2.00;;
50249;SDS011;36133;42.522;27.456;2022-10-23T10:10:50;20.60;;;2.20;;
50249;SDS011;36133;42.522;27.456;2022-10-23T10:15:54;2.75;;;1.90;;
50249;SDS011;36133;42.522;27.456;2022-10-23T10:21:10;2.28;;;2.05;;
50249;SDS011;36133;42.522;27.456;2022-10-23T10:27:04;3.40;;;1.80;;
50249;SDS011;36133;42.522;27.456;2022-10-23T10:52:33;11.23;;;2.83;;
50249;SDS011;36133;42.522;27.456;2022-10-23T10:58:02;4.45;;;2.30;;
50249;SDS011;36133;42.522;27.456;2022-10-23T11:00:44;4.65;;;2.60;;
50249;SDS011;36133;42.522;27.456;2022-10-23T11:06:11;12.20;;;2.92;;
50249;SDS011;36133;42.522;27.456;2022-10-23T11:08:40;3.47;;;2.47;;
50249;SDS011;36133;42.522;27.456;2022-10-23T11:11:09;5.97;;;2.92;;
50249;SDS011;36133;42.522;27.456;2022-10-23T11:13:41;3.97;;;2.40;;
50249;SDS011;36133;42.522;27.456;2022-10-23T11:16:16;5.18;;;2.30;;
50249;SDS011;36133;42.522;27.456;2022-10-23T11:18:52;4.78;;;2.60;;
50249;SDS011;36133;42.522;27.456;2022-10-23T11:21:46;4.90;;;2.58;;
50249;SDS011;36133;42.522;27.456;2022-10-23T11:24:39;6.13;;;2.67;;
50249;SDS011;36133;42.522;27.456;2022-10-23T11:27:41;9.40;;;2.88;;
50249;SDS011;36133;42.522;27.456;2022-10-23T11:30:20;8.13;;;2.90;;
50249;SDS011;36133;42.522;27.456;2022-10-23T11:32:56;9.25;;;2.72;;
50249;SDS011;36133;42.522;27.456;2022-10-23T11:40:57;7.47;;;2.63;;
50249;SDS011;36133;42.522;27.456;2022-10-23T11:43:33;3.65;;;2.28;;
50249;SDS011;36133;42.522;27.456;2022-10-23T11:46:34;4.07;;;2.67;;
50249;SDS011;36133;42.522;27.456;2022-10-23T11:49:02;5.72;;;2.63;;
50249;SDS011;36133;42.522;27.456;2022-10-23T11:56:35;2.97;;;1.98;;
50249;SDS011;36133;42.522;27.456;2022-10-23T11:59:21;5.43;;;2.10;;
50249;SDS011;36133;42.522;27.456;2022-10-23T12:01:52;7.97;;;2.72;;
50249;SDS011;36133;42.522;27.456;2022-10-23T12:04:22;3.65;;;2.30;;
50249;SDS011;36133;42.522;27.456;2022-10-23T12:07:01;5.60;;;2.63;;
50249;SDS011;36133;42.522;27.456;2022-10-23T12:12:25;5.95;;;2.00;;
50249;SDS011;36133;42.522;27.456;2022-10-23T12:14:53;4.90;;;2.22;;
50249;SDS011;36133;42.522;27.456;2022-10-23T12:17:39;3.50;;;2.10;;
50249;SDS011;36133;42.522;27.456;2022-10-23T12:25:36;4.50;;;2.15;;
50249;SDS011;36133;42.522;27.456;2022-10-23T12:38:31;6.20;;;1.90;;
50249;SDS011;36133;42.522;27.456;2022-10-23T12:43:31;5.38;;;1.70;;
50249;SDS011;36133;42.522;27.456;2022-10-23T12:46:15;7.00;;;2.05;;
50249;SDS011;36133;42.522;27.456;2022-10-23T12:48:49;4.13;;;1.80;;
50249;SDS011;36133;42.522;27.456;2022-10-23T12:51:37;6.78;;;2.00;;
50249;SDS011;36133;42.522;27.456;2022-10-23T12:54:03;6.90;;;2.30;;
50249;SDS011;36133;42.522;27.456;2022-10-23T12:56:47;5.13;;;1.90;;
50249;SDS011;36133;42.522;27.456;2022-10-23T12:59:22;4.50;;;1.63;;
50249;SDS011;36133;42.522;27.456;2022-10-23T13:01:50;3.63;;;1.77;;
50249;SDS011;36133;42.522;27.456;2022-10-23T13:04:29;4.53;;;1.90;;
50249;SDS011;36133;42.522;27.456;2022-10-23T13:07:01;7.80;;;2.20;;
50249;SDS011;36133;42.522;27.456;2022-10-23T13:09:31;3.00;;;1.67;;
50249;SDS011;36133;42.522;27.456;2022-10-23T13:12:00;4.63;;;1.63;;
50249;SDS011;36133;42.522;27.456;2022-10-23T13:17:05;7.22;;;1.67;;
50249;SDS011;36133;42.522;27.456;2022-10-23T13:19:38;8.00;;;1.90;;
50249;SDS011;36133;42.522;27.456;2022-10-23T13:22:04;6.63;;;1.90;;
50249;SDS011;36133;42.522;27.456;2022-10-23T13:24:46;4.47;;;1.80;;
50249;SDS011;36133;42.522;27.456;2022-10-23T13:27:31;3.13;;;1.70;;
50249;SDS011;36133;42.522;27.456;2022-10-23T13:29:58;9.25;;;2.00;;
50249;SDS011;36133;42.522;27.456;2022-10-23T13:32:30;8.77;;;2.45;;
50249;SDS011;36133;42.522;27.456;2022-10-23T13:34:56;4.25;;;1.90;;
50249;SDS011;36133;42.522;27.456;2022-10-23T13:37:27;6.93;;;1.75;;
50249;SDS011;36133;42.522;27.456;2022-10-23T13:40:04;3.45;;;1.80;;
50249;SDS011;36133;42.522;27.456;2022-10-23T13:42:40;1.90;;;1.70;;
50249;SDS011;36133;42.522;27.456;2022-10-23T13:45:11;6.05;;;1.98;;
50249;SDS011;36133;42.522;27.456;2022-10-23T13:47:43;4.65;;;2.47;;
50249;SDS011;36133;42.522;27.456;2022-10-23T13:50:08;8.00;;;2.17;;
50249;SDS011;36133;42.522;27.456;2022-10-23T13:52:35;4.35;;;1.98;;
50249;SDS011;36133;42.522;27.456;2022-10-23T13:55:01;4.85;;;1.80;;
50249;SDS011;36133;42.522;27.456;2022-10-23T13:57:27;7.07;;;2.00;;
50249;SDS011;36133;42.522;27.456;2022-10-23T13:59:52;3.28;;;2.10;;
50249;SDS011;36133;42.522;27.456;2022-10-23T14:02:19;7.05;;;1.95;;
50249;SDS011;36133;42.522;27.456;2022-10-23T14:04:47;2.25;;;1.70;;
50249;SDS011;36133;42.522;27.456;2022-10-23T14:07:13;4.20;;;1.67;;
50249;SDS011;36133;42.522;27.456;2022-10-23T14:09:39;6.45;;;1.70;;
50249;SDS011;36133;42.522;27.456;2022-10-23T14:12:05;4.50;;;2.17;;
50249;SDS011;36133;42.522;27.456;2022-10-23T14:14:31;9.68;;;2.72;;
50249;SDS011;36133;42.522;27.456;2022-10-23T14:16:56;7.22;;;2.00;;
50249;SDS011;36133;42.522;27.456;2022-10-23T14:19:22;3.67;;;2.03;;
50249;SDS011;36133;42.522;27.456;2022-10-23T14:21:47;9.07;;;2.08;;
50249;SDS011;36133;42.522;27.456;2022-10-23T14:24:22;7.47;;;2.13;;
50249;SDS011;36133;42.522;27.456;2022-10-23T14:26:48;7.70;;;2.00;;
50249;SDS011;36133;42.522;27.456;2022-10-23T14:29:14;5.03;;;1.52;;
50249;SDS011;36133;42.522;27.456;2022-10-23T14:31:39;9.45;;;1.92;;
50249;SDS011;36133;42.522;27.456;2022-10-23T14:34:09;6.30;;;1.90;;
50249;SDS011;36133;42.522;27.456;2022-10-23T14:36:35;6.10;;;2.63;;
50249;SDS011;36133;42.522;27.456;2022-10-23T14:39:03;6.28;;;2.00;;
50249;SDS011;36133;42.522;27.456;2022-10-23T14:41:29;3.83;;;1.73;;
50249;SDS011;36133;42.522;27.456;2022-10-23T14:43:55;12.15;;;2.30;;
50249;SDS011;36133;42.522;27.456;2022-10-23T14:46:23;5.97;;;2.00;;
50249;SDS011;36133;42.522;27.456;2022-10-23T14:48:52;3.40;;;1.75;;
50249;SDS011;36133;42.522;27.456;2022-10-23T14:54:10;6.55;;;2.35;;
50249;SDS011;36133;42.522;27.456;2022-10-23T14:56:36;4.03;;;1.90;;
50249;SDS011;36133;42.522;27.456;2022-10-23T14:59:04;3.63;;;1.70;;
50249;SDS011;36133;42.522;27.456;2022-10-23T15:01:31;5.53;;;1.90;;
50249;SDS011;36133;42.522;27.456;2022-10-23T15:03:59;6.22;;;2.10;;
50249;SDS011;36133;42.522;27.456;2022-10-23T15:06:25;9.10;;;2.08;;
50249;SDS011;36133;42.522;27.456;2022-10-23T15:08:53;8.13;;;2.08;;
50249;SDS011;36133;42.522;27.456;2022-10-23T15:11:19;8.30;;;2.33;;
50249;SDS011;36133;42.522;27.456;2022-10-23T15:13:46;10.05;;;2.20;;
50249;SDS011;36133;42.522;27.456;2022-10-23T15:16:11;6.50;;;2.50;;
50249;SDS011;36133;42.522;27.456;2022-10-23T15:18:37;5.25;;;2.20;;
50249;SDS011;36133;42.522;27.456;2022-10-23T15:21:03;4.57;;;2.38;;
50249;SDS011;36133;42.522;27.456;2022-10-23T15:23:32;8.68;;;2.47;;
50249;SDS011;36133;42.522;27.456;2022-10-23T15:26:00;7.68;;;2.00;;
50249;SDS011;36133;42.522;27.456;2022-10-23T15:31:42;5.90;;;3.40;;
50249;SDS011;36133;42.522;27.456;2022-10-23T15:34:13;11.35;;;3.20;;
50249;SDS011;36133;42.522;27.456;2022-10-23T15:36:41;5.88;;;3.47;;
50249;SDS011;36133;42.522;27.456;2022-10-23T15:39:10;11.50;;;3.25;;
50249;SDS011;36133;42.522;27.456;2022-10-23T15:41:40;7.18;;;3.13;;
50249;SDS011;36133;42.522;27.456;2022-10-23T15:44:13;10.85;;;3.20;;
50249;SDS011;36133;42.522;27.456;2022-10-23T15:46:41;8.15;;;3.03;;
50249;SDS011;36133;42.522;27.456;2022-10-23T15:49:07;6.30;;;2.55;;
50249;SDS011;36133;42.522;27.456;2022-10-23T15:51:33;11.05;;;3.22;;
50249;SDS011;36133;42.522;27.456;2022-10-23T15:54:00;10.38;;;3.42;;
50249;SDS011;36133;42.522;27.456;2022-10-23T15:56:27;11.32;;;3.35;;
50249;SDS011;36133;42.522;27.456;2022-10-23T15:58:52;12.27;;;3.90;;
50249;SDS011;36133;42.522;27.456;2022-10-23T16:01:18;18.40;;;4.55;;
50249;SDS011;36133;42.522;27.456;2022-10-23T16:03:44;12.70;;;3.85;;
50249;SDS011;36133;42.522;27.456;2022-10-23T16:06:11;11.38;;;4.05;;
50249;SDS011;36133;42.522;27.456;2022-10-23T16:08:38;14.35;;;3.83;;
50249;SDS011;36133;42.522;27.456;2022-10-23T16:11:09;8.30;;;3.83;;
50249;SDS011;36133;42.522;27.456;2022-10-23T16:13:44;7.53;;;3.63;;
50249;SDS011;36133;42.522;27.456;2022-10-23T16:16:09;11.80;;;3.70;;
50249;SDS011;36133;42.522;27.456;2022-10-23T16:18:36;8.55;;;3.17;;
50249;SDS011;36133;42.522;27.456;2022-10-23T16:21:02;5.47;;;2.80;;
50249;SDS011;36133;42.522;27.456;2022-10-23T16:23:27;12.82;;;3.47;;
50249;SDS011;36133;42.522;27.456;2022-10-23T16:25:53;10.40;;;3.58;;
50249;SDS011;36133;42.522;27.456;2022-10-23T16:28:19;12.18;;;3.85;;
50249;SDS011;36133;42.522;27.456;2022-10-23T16:30:45;11.35;;;3.85;;
50249;SDS011;36133;42.522;27.456;2022-10-23T16:33:11;6.57;;;3.83;;
50249;SDS011;36133;42.522;27.456;2022-10-23T16:35:37;12.45;;;3.92;;
50249;SDS011;36133;42.522;27.456;2022-10-23T16:38:03;6.80;;;3.65;;
50249;SDS011;36133;42.522;27.456;2022-10-23T16:40:28;10.68;;;3.40;;
50249;SDS011;36133;42.522;27.456;2022-10-23T16:42:55;11.25;;;3.53;;
50249;SDS011;36133;42.522;27.456;2022-10-23T16:45:21;12.93;;;5.40;;
50249;SDS011;36133;42.522;27.456;2022-10-23T16:47:47;8.18;;;3.38;;
50249;SDS011;36133;42.522;27.456;2022-10-23T16:50:12;18.50;;;4.30;;
50249;SDS011;36133;42.522;27.456;2022-10-23T16:52:39;11.43;;;3.95;;
50249;SDS011;36133;42.522;27.456;2022-10-23T16:55:06;8.93;;;3.15;;
50249;SDS011;36133;42.522;27.456;2022-10-23T16:57:36;14.05;;;4.00;;
50249;SDS011;36133;42.522;27.456;2022-10-23T17:00:02;7.68;;;3.38;;
50249;SDS011;36133;42.522;27.456;2022-10-23T17:02:29;11.50;;;3.25;;
50249;SDS011;36133;42.522;27.456;2022-10-23T17:04:54;11.25;;;4.10;;
50249;SDS011;36133;42.522;27.456;2022-10-23T17:07:20;10.80;;;4.25;;
50249;SDS011;36133;42.522;27.456;2022-10-23T17:09:47;14.68;;;4.68;;
50249;SDS011;36133;42.522;27.456;2022-10-23T17:12:13;8.68;;;3.90;;
50249;SDS011;36133;42.522;27.456;2022-10-23T17:14:40;13.25;;;3.90;;
50249;SDS011;36133;42.522;27.456;2022-10-23T17:17:06;8.48;;;3.65;;
50249;SDS011;36133;42.522;27.456;2022-10-23T17:19:33;9.70;;;3.03;;
50249;SDS011;36133;42.522;27.456;2022-10-23T17:22:01;9.38;;;3.38;;
50249;SDS011;36133;42.522;27.456;2022-10-23T17:24:27;10.07;;;3.65;;
50249;SDS011;36133;42.522;27.456;2022-10-23T17:26:53;16.60;;;3.72;;
50249;SDS011;36133;42.522;27.456;2022-10-23T17:29:19;12.20;;;3.33;;
50249;SDS011;36133;42.522;27.456;2022-10-23T17:31:45;16.65;;;3.33;;
50249;SDS011;36133;42.522;27.456;2022-10-23T17:34:14;9.60;;;3.30;;
50249;SDS011;36133;42.522;27.456;2022-10-23T17:36:42;9.30;;;3.25;;
50249;SDS011;36133;42.522;27.456;2022-10-23T17:39:10;6.05;;;2.97;;
50249;SDS011;36133;42.522;27.456;2022-10-23T17:41:37;10.73;;;3.17;;
50249;SDS011;36133;42.522;27.456;2022-10-23T17:44:04;7.35;;;2.97;;
50249;SDS011;36133;42.522;27.456;2022-10-23T17:46:29;6.18;;;3.33;;
50249;SDS011;36133;42.522;27.456;2022-10-23T17:48:56;7.07;;;2.90;;
50249;SDS011;36133;42.522;27.456;2022-10-23T17:51:23;11.55;;;3.17;;
50249;SDS011;36133;42.522;27.456;2022-10-23T17:53:51;9.55;;;3.35;;
50249;SDS011;36133;42.522;27.456;2022-10-23T17:56:21;7.68;;;4.03;;
50249;SDS011;36133;42.522;27.456;2022-10-23T17:58:48;7.53;;;3.78;;
50249;SDS011;36133;42.522;27.456;2022-10-23T18:01:16;12.43;;;5.18;;
50249;SDS011;36133;42.522;27.456;2022-10-23T18:03:44;12.38;;;4.93;;
50249;SDS011;36133;42.522;27.456;2022-10-23T18:06:14;12.85;;;4.50;;
50249;SDS011;36133;42.522;27.456;2022-10-23T18:08:42;11.60;;;4.30;;
50249;SDS011;36133;42.522;27.456;2022-10-23T18:11:16;12.52;;;4.72;;
50249;SDS011;36133;42.522;27.456;2022-10-23T18:13:43;12.40;;;5.05;;
50249;SDS011;36133;42.522;27.456;2022-10-23T18:16:10;11.20;;;4.38;;
50249;SDS011;36133;42.522;27.456;2022-10-23T18:18:37;8.38;;;4.22;;
50249;SDS011;36133;42.522;27.456;2022-10-23T18:21:04;5.60;;;4.05;;
50249;SDS011;36133;42.522;27.456;2022-10-23T18:23:31;13.75;;;4.18;;
50249;SDS011;36133;42.522;27.456;2022-10-23T18:25:58;10.65;;;4.22;;
50249;SDS011;36133;42.522;27.456;2022-10-23T18:28:24;10.82;;;4.93;;
50249;SDS011;36133;42.522;27.456;2022-10-23T18:30:50;8.77;;;4.68;;
50249;SDS011;36133;42.522;27.456;2022-10-23T18:33:17;10.05;;;4.63;;
50249;SDS011;36133;42.522;27.456;2022-10-23T18:35:42;11.95;;;5.35;;
50249;SDS011;36133;42.522;27.456;2022-10-23T18:38:09;19.30;;;6.03;;
50249;SDS011;36133;42.522;27.456;2022-10-23T18:40:35;11.98;;;5.63;;
50249;SDS011;36133;42.522;27.456;2022-10-23T18:43:02;13.55;;;5.32;;
50249;SDS011;36133;42.522;27.456;2022-10-23T18:45:29;11.63;;;5.55;;
50249;SDS011;36133;42.522;27.456;2022-10-23T18:47:55;9.88;;;5.32;;
50249;SDS011;36133;42.522;27.456;2022-10-23T18:50:20;11.85;;;5.85;;
50249;SDS011;36133;42.522;27.456;2022-10-23T18:52:46;8.55;;;4.50;;
50249;SDS011;36133;42.522;27.456;2022-10-23T18:55:12;7.72;;;4.85;;
50249;SDS011;36133;42.522;27.456;2022-10-23T18:57:38;12.63;;;4.63;;
50249;SDS011;36133;42.522;27.456;2022-10-23T19:00:05;9.05;;;4.28;;
50249;SDS011;36133;42.522;27.456;2022-10-23T19:02:32;7.72;;;4.18;;
50249;SDS011;36133;42.522;27.456;2022-10-23T19:04:58;7.50;;;3.72;;
50249;SDS011;36133;42.522;27.456;2022-10-23T19:07:24;11.57;;;4.30;;
50249;SDS011;36133;42.522;27.456;2022-10-23T19:09:50;13.35;;;4.10;;
50249;SDS011;36133;42.522;27.456;2022-10-23T19:12:17;13.23;;;4.00;;
50249;SDS011;36133;42.522;27.456;2022-10-23T19:14:44;12.10;;;4.32;;
50249;SDS011;36133;42.522;27.456;2022-10-23T19:17:13;5.95;;;3.60;;
50249;SDS011;36133;42.522;27.456;2022-10-23T19:19:55;8.48;;;4.00;;
50249;SDS011;36133;42.522;27.456;2022-10-23T19:22:26;10.80;;;5.20;;
50249;SDS011;36133;42.522;27.456;2022-10-23T19:24:56;15.18;;;5.55;;
50249;SDS011;36133;42.522;27.456;2022-10-23T19:27:26;11.07;;;5.60;;
50249;SDS011;36133;42.522;27.456;2022-10-23T19:29:52;10.88;;;5.72;;
50249;SDS011;36133;42.522;27.456;2022-10-23T19:32:19;12.10;;;5.38;;
50249;SDS011;36133;42.522;27.456;2022-10-23T19:34:46;12.77;;;6.18;;
50249;SDS011;36133;42.522;27.456;2022-10-23T19:37:12;12.15;;;5.80;;
50249;SDS011;36133;42.522;27.456;2022-10-23T19:39:38;15.82;;;6.68;;
50249;SDS011;36133;42.522;27.456;2022-10-23T19:42:04;15.00;;;7.43;;
50249;SDS011;36133;42.522;27.456;2022-10-23T19:44:29;11.20;;;6.10;;
50249;SDS011;36133;42.522;27.456;2022-10-23T19:46:55;14.63;;;6.47;;
50249;SDS011;36133;42.522;27.456;2022-10-23T19:49:21;16.65;;;6.70;;
50249;SDS011;36133;42.522;27.456;2022-10-23T19:51:48;15.13;;;8.00;;
50249;SDS011;36133;42.522;27.456;2022-10-23T19:54:13;13.30;;;7.40;;
50249;SDS011;36133;42.522;27.456;2022-10-23T19:56:39;13.77;;;7.60;;
50249;SDS011;36133;42.522;27.456;2022-10-23T19:59:05;17.17;;;7.65;;
50249;SDS011;36133;42.522;27.456;2022-10-23T20:01:31;15.95;;;8.45;;
50249;SDS011;36133;42.522;27.456;2022-10-23T20:03:59;17.77;;;7.18;;
50249;SDS011;36133;42.522;27.456;2022-10-23T20:06:26;11.43;;;6.50;;
50249;SDS011;36133;42.522;27.456;2022-10-23T20:08:54;15.52;;;7.50;;
50249;SDS011;36133;42.522;27.456;2022-10-23T20:11:25;12.75;;;7.35;;
50249;SDS011;36133;42.522;27.456;2022-10-23T20:13:52;14.05;;;7.00;;
50249;SDS011;36133;42.522;27.456;2022-10-23T20:16:28;10.90;;;6.53;;
50249;SDS011;36133;42.522;27.456;2022-10-23T20:19:00;8.63;;;5.13;;